Grand Canyon Natl Park, Arizona
Current Conditions -  °F | °C
As of 11:54 PM on Monday 20 Oct 2014 (Local Time) from KGCN Reporting Station
Few Clouds Few Clouds  
Wind Chill:   Ceiling: Unl
Heat Index:   Visibility: 10mi
Dew Point: -1°   Wind: 0mph
Humidity: 79%   Direction: NA
Pressure: 30.16"   Gusts: NA
Location:  36.2°N, 112.07°W
Report Text: KGCN 210654Z AUTO 00000KT 10SM FEW080 03/M01 A3016 RMK AO2 SLP156 T00281006 402000000
Loading
Personal Weather Stations






























Interactive Weather Map
Tropical Storm Tracking
New forecast layout! Learn more

10-Day Weather Forecast

Advertisements
Track Severe Weather on mobile